Time;durP1;ratioP1;P1;durP2;ratioP2;P2;SDS_P1;SDS_P2;PMS_P1;PMS_P2;Temp;Humidity;BMP_temperature;BMP_pressure;BME280_temperature;BME280_humidity;BME280_pressure;Samples;Min_cycle;Max_cycle;Signal;HPM_P1;HPM_P2
2023/04/03 00:00:40;;;;;;;;;;;;;;;3.64;100.00;97066.25;5069987;28;19920;-68
2023/04/03 00:03:05;;;;;;;;;;;;;;;3.72;100.00;97064.69;5067531;28;19920;-67
2023/04/03 00:05:30;;;;;;;;;;;;;;;3.58;100.00;97059.38;5063856;28;19947;-69
2023/04/03 00:07:56;;;;;;;;;;;;;;;3.56;100.00;97060.78;5063474;28;19964;-69
2023/04/03 00:10:21;;;;;;;;;;;;;;;3.53;100.00;97064.94;5041097;28;19925;-69
2023/04/03 00:12:47;;;;;;;;;;;;;;;3.39;100.00;97059.59;5064758;28;19927;-68
2023/04/03 00:15:12;;;;;;;;;;;;;;;3.37;100.00;97066.44;5040539;28;20057;-68
2023/04/03 00:17:37;;;;;;;;;;;;;;;3.48;100.00;97062.34;5066989;28;19928;-68
2023/04/03 00:20:03;;;;;;;;;;;;;;;3.51;100.00;97077.16;5074780;28;20515;-68
2023/04/03 00:22:29;;;;;;;;;;;;;;;3.45;100.00;97063.75;5063555;28;19920;-68
2023/04/03 00:24:54;;;;;;;;;;;;;;;3.40;100.00;97080.16;5061889;28;19940;-68
2023/04/03 00:27:19;;;;;;;;;;;;;;;3.22;100.00;97064.91;5057272;28;19917;-68
2023/04/03 00:29:45;;;;;;;;;;;;;;;3.23;100.00;97061.09;5061277;28;20320;-68
2023/04/03 00:32:10;;;;;;;;;;;;;;;3.20;100.00;97069.84;5058079;28;19920;-68
2023/04/03 00:34:35;;;;;;;;;;;;;;;3.13;100.00;97055.94;5072437;28;19917;-69
2023/04/03 00:37:01;;;;;;;;;;;;;;;3.17;100.00;97062.31;5066959;28;19921;-67
2023/04/03 00:39:26;;;;;;;;;;;;;;;3.04;100.00;97062.13;5059037;28;19920;-68
2023/04/03 00:41:51;;;;;;;;;;;;;;;3.02;100.00;97060.81;5063994;28;19927;-67
2023/04/03 00:44:35;;;;;;;;;;;;;;;3.00;100.00;97060.31;5073697;28;19924;-67
2023/04/03 00:47:01;;;;;;;;;;;;;;;2.95;100.00;97060.44;5090575;28;19916;-66
2023/04/03 00:49:27;;;;;;;;;;;;;;;2.95;100.00;97063.16;5073039;28;19959;-66
2023/04/03 00:51:53;;;;;;;;;;;;;;;2.91;100.00;97070.28;5073354;28;19920;-67
2023/04/03 00:54:19;;;;;;;;;;;;;;;2.86;100.00;97050.38;5076240;28;19927;-68
2023/04/03 00:56:44;;;;;;;;;;;;;;;2.85;100.00;97064.22;5081921;28;20010;-68
2023/04/03 00:59:18;;;;;;;;;;;;;;;2.82;100.00;97062.91;5076453;28;19923;-69
2023/04/03 01:01:43;;;;;;;;;;;;;;;2.84;100.00;97065.31;5081782;28;19920;-68
2023/04/03 01:04:28;;;;;;;;;;;;;;;2.76;100.00;97072.25;5077222;28;19920;-68
2023/04/03 01:06:53;;;;;;;;;;;;;;;2.76;100.00;97072.25;5080780;28;20413;-68
2023/04/03 01:09:19;;;;;;;;;;;;;;;2.67;100.00;97072.19;5076283;28;19924;-68
2023/04/03 01:11:45;;;;;;;;;;;;;;;2.60;100.00;97065.59;5081211;28;19995;-68
2023/04/03 01:14:10;;;;;;;;;;;;;;;2.68;100.00;97067.56;5077244;28;20471;-68
2023/04/03 01:16:35;;;;;;;;;;;;;;;2.54;100.00;97059.50;5085334;28;19985;-68
2023/04/03 01:19:01;;;;;;;;;;;;;;;2.48;100.00;97053.44;5085607;28;20373;-67
2023/04/03 01:21:40;;;;;;;;;;;;;;;2.51;100.00;97070.94;5080260;28;20432;-68
2023/04/03 01:24:23;;;;;;;;;;;;;;;2.33;100.00;97048.34;5080867;28;19922;-67
2023/04/03 01:26:49;;;;;;;;;;;;;;;2.26;100.00;97050.66;5084997;28;20348;-69
2023/04/03 01:29:15;;;;;;;;;;;;;;;2.22;100.00;97065.91;5079839;28;20033;-68
2023/04/03 01:32:00;;;;;;;;;;;;;;;2.14;100.00;97064.69;5085498;28;20402;-68
2023/04/03 01:34:26;;;;;;;;;;;;;;;2.10;100.00;97048.28;5078696;28;20370;-68
2023/04/03 01:36:52;;;;;;;;;;;;;;;2.10;100.00;97077.22;5062279;28;20011;-69
2023/04/03 01:39:18;;;;;;;;;;;;;;;2.06;100.00;97074.31;5079934;28;20011;-68
2023/04/03 01:41:43;;;;;;;;;;;;;;;2.05;100.00;97058.41;5085899;28;19916;-68
2023/04/03 01:44:09;;;;;;;;;;;;;;;1.98;100.00;97060.72;5072539;28;20434;-69
2023/04/03 01:46:34;;;;;;;;;;;;;;;1.98;100.00;97052.59;5066142;28;19920;-67
2023/04/03 01:49:00;;;;;;;;;;;;;;;2.15;100.00;97069.00;5078777;28;19925;-67
2023/04/03 01:51:25;;;;;;;;;;;;;;;2.03;100.00;97074.91;5067152;28;19936;-67
2023/04/03 01:53:51;;;;;;;;;;;;;;;2.15;100.00;97073.63;5076477;28;20051;-68
2023/04/03 01:56:16;;;;;;;;;;;;;;;1.91;100.00;97070.03;5079557;28;19919;-69
2023/04/03 01:58:42;;;;;;;;;;;;;;;2.18;100.00;97062.19;5084559;28;20392;-69
2023/04/03 02:01:07;;;;;;;;;;;;;;;1.90;100.00;97079.22;5079213;28;19916;-69
2023/04/03 02:03:32;;;;;;;;;;;;;;;1.86;100.00;97075.53;5084602;28;19984;-69
2023/04/03 02:05:57;;;;;;;;;;;;;;;1.81;100.00;97086.44;5084307;28;19916;-69
2023/04/03 02:08:23;;;;;;;;;;;;;;;1.88;100.00;97094.16;5078957;28;20368;-69
2023/04/03 02:10:49;;;;;;;;;;;;;;;1.84;100.00;97080.44;5084200;28;19917;-68
2023/04/03 02:13:14;;;;;;;;;;;;;;;1.89;100.00;97082.22;5078295;28;19962;-68
2023/04/03 02:15:40;;;;;;;;;;;;;;;1.84;100.00;97077.75;5083873;28;19917;-69
2023/04/03 02:18:06;;;;;;;;;;;;;;;1.69;100.00;97078.03;5080302;28;19923;-66
2023/04/03 02:20:31;;;;;;;;;;;;;;;1.66;100.00;97092.94;5084726;28;19920;-68
2023/04/03 02:22:56;;;;;;;;;;;;;;;1.67;100.00;97082.94;5065832;28;19935;-69
2023/04/03 02:25:22;;;;;;;;;;;;;;;1.65;100.00;97060.84;5077539;28;20307;-68
2023/04/03 02:27:47;;;;;;;;;;;;;;;1.73;100.00;97095.25;5082555;28;20003;-68
2023/04/03 02:30:14;;;;;;;;;;;;;;;1.62;100.00;97083.03;5079125;28;20256;-68
2023/04/03 02:32:40;;;;;;;;;;;;;;;1.57;100.00;97066.91;5085059;28;20387;-68
2023/04/03 02:35:06;;;;;;;;;;;;;;;1.53;100.00;97083.72;5078396;28;19923;-68
2023/04/03 02:37:31;;;;;;;;;;;;;;;1.59;99.99;97084.44;5083667;28;20308;-68
2023/04/03 02:39:57;;;;;;;;;;;;;;;1.56;99.77;97082.31;5088631;28;19931;-69
2023/04/03 02:42:22;;;;;;;;;;;;;;;1.59;100.00;97078.25;5091551;28;19927;-69
2023/04/03 02:44:48;;;;;;;;;;;;;;;1.59;100.00;97080.94;5081148;28;19920;-68
2023/04/03 02:47:13;;;;;;;;;;;;;;;1.71;100.00;97079.34;5059758;28;19993;-68
2023/04/03 02:49:38;;;;;;;;;;;;;;;1.67;99.77;97075.63;5065827;28;19916;-68
2023/04/03 02:52:04;;;;;;;;;;;;;;;1.63;100.00;97081.94;5086047;28;19916;-68
2023/04/03 02:54:30;;;;;;;;;;;;;;;1.62;97.32;97081.16;5080434;28;20395;-68
2023/04/03 02:56:56;;;;;;;;;;;;;;;1.57;98.28;97069.63;5076858;28;20284;-67
2023/04/03 02:59:21;;;;;;;;;;;;;;;1.65;98.61;97085.94;5078622;28;21062;-67
2023/04/03 03:01:46;;;;;;;;;;;;;;;1.64;98.54;97072.72;5082319;28;19920;-67
2023/04/03 03:04:12;;;;;;;;;;;;;;;1.59;97.79;97081.72;5059907;28;19971;-67
2023/04/03 03:06:37;;;;;;;;;;;;;;;1.59;97.26;97089.03;5083671;28;20010;-69
2023/04/03 03:09:03;;;;;;;;;;;;;;;1.59;96.75;97086.34;5062742;28;19920;-69
2023/04/03 03:11:28;;;;;;;;;;;;;;;1.62;97.52;97081.16;5086347;28;20331;-68
2023/04/03 03:13:54;;;;;;;;;;;;;;;1.59;98.54;97084.44;5084815;28;19917;-66
2023/04/03 03:16:19;;;;;;;;;;;;;;;1.71;96.69;97086.63;5079029;28;19958;-70
2023/04/03 03:18:45;;;;;;;;;;;;;;;1.63;96.56;97100.84;5083250;28;19920;-69
2023/04/03 03:21:10;;;;;;;;;;;;;;;1.68;96.41;97106.94;5078684;28;20304;-69
2023/04/03 03:23:36;;;;;;;;;;;;;;;1.65;95.08;97107.53;5083254;28;19916;-69
2023/04/03 03:26:03;;;;;;;;;;;;;;;1.60;96.89;97112.22;5082347;28;20394;-69
2023/04/03 03:28:28;;;;;;;;;;;;;;;1.79;95.58;97120.25;5079001;28;19963;-68
2023/04/03 03:30:54;;;;;;;;;;;;;;;1.75;92.12;97114.66;5082454;28;20012;-69
2023/04/03 03:33:19;;;;;;;;;;;;;;;1.91;91.80;97121.34;5078210;28;20038;-68
2023/04/03 03:35:45;;;;;;;;;;;;;;;1.77;91.81;97125.16;5082721;28;19919;-68
2023/04/03 03:38:10;;;;;;;;;;;;;;;1.65;92.04;97123.72;5073677;28;19935;-67
2023/04/03 03:40:35;;;;;;;;;;;;;;;1.54;89.73;97122.31;5063985;28;19920;-69
2023/04/03 03:43:01;;;;;;;;;;;;;;;1.51;89.15;97133.69;5081881;28;20384;-70
2023/04/03 03:45:26;;;;;;;;;;;;;;;1.48;91.26;97123.53;5061735;28;19920;-69
2023/04/03 03:47:51;;;;;;;;;;;;;;;1.40;89.78;97135.78;5098268;28;19920;-69
2023/04/03 03:50:17;;;;;;;;;;;;;;;1.46;89.10;97131.09;5081567;28;19916;-66
2023/04/03 03:52:42;;;;;;;;;;;;;;;1.59;89.64;97135.72;5082914;28;20018;-68
2023/04/03 03:55:08;;;;;;;;;;;;;;;1.43;88.39;97137.09;5077426;28;20376;-68
2023/04/03 03:57:33;;;;;;;;;;;;;;;1.57;87.56;97139.81;5080329;28;19916;-68
2023/04/03 03:59:58;;;;;;;;;;;;;;;1.66;86.28;97146.94;5082218;28;19916;-68
2023/04/03 04:02:24;;;;;;;;;;;;;;;1.55;85.67;97142.00;5077366;28;19969;-67
2023/04/03 04:04:49;;;;;;;;;;;;;;;1.54;86.13;97138.53;5081684;28;19958;-68
2023/04/03 04:07:14;;;;;;;;;;;;;;;1.65;87.34;97137.22;5068137;28;19916;-68
2023/04/03 04:09:40;;;;;;;;;;;;;;;1.62;87.22;97150.53;5062609;28;19916;-68
2023/04/03 04:12:06;;;;;;;;;;;;;;;1.50;87.35;97151.00;5077595;28;20233;-69
2023/04/03 04:14:31;;;;;;;;;;;;;;;1.55;88.93;97148.22;5100941;28;19916;-68
2023/04/03 04:16:57;;;;;;;;;;;;;;;1.70;87.68;97150.66;5090630;28;20454;-68
2023/04/03 04:19:22;;;;;;;;;;;;;;;1.76;87.81;97147.84;5077141;28;20519;-68
2023/04/03 04:21:47;;;;;;;;;;;;;;;1.51;89.70;97155.31;5081836;28;19978;-67
2023/04/03 04:24:12;;;;;;;;;;;;;;;1.58;89.26;97154.94;5090105;28;19920;-68
2023/04/03 04:26:38;;;;;;;;;;;;;;;1.66;89.09;97146.94;5093509;28;19927;-68
2023/04/03 04:29:03;;;;;;;;;;;;;;;1.51;90.12;97149.91;5080886;28;20004;-66
2023/04/03 04:31:29;;;;;;;;;;;;;;;1.63;90.32;97146.75;5080259;28;19915;-66
2023/04/03 04:33:54;;;;;;;;;;;;;;;1.57;91.12;97151.44;5081553;28;19969;-68
2023/04/03 04:36:20;;;;;;;;;;;;;;;1.52;91.84;97163.09;5075744;28;19916;-68
2023/04/03 04:38:45;;;;;;;;;;;;;;;1.59;91.72;97156.53;5063578;28;20407;-68
2023/04/03 04:41:10;;;;;;;;;;;;;;;1.59;91.52;97149.22;5076269;28;20412;-68
2023/04/03 04:43:36;;;;;;;;;;;;;;;1.39;92.90;97152.25;5082252;28;20023;-67
2023/04/03 04:46:02;;;;;;;;;;;;;;;1.67;92.98;97145.81;5080515;28;20275;-67
2023/04/03 04:48:28;;;;;;;;;;;;;;;1.47;93.00;97152.41;5079885;28;19927;-68
2023/04/03 04:50:53;;;;;;;;;;;;;;;1.37;93.81;97140.97;5074733;28;19916;-67
2023/04/03 04:53:18;;;;;;;;;;;;;;;1.67;92.77;97142.34;5086656;28;19920;-68
2023/04/03 04:55:43;;;;;;;;;;;;;;;1.35;92.78;97135.84;5092301;28;19920;-68
2023/04/03 04:58:09;;;;;;;;;;;;;;;1.66;92.31;97138.84;5086590;28;19927;-71
2023/04/03 05:00:34;;;;;;;;;;;;;;;1.46;91.33;97142.72;5086057;28;19920;-67
2023/04/03 05:02:59;;;;;;;;;;;;;;;1.70;90.91;97147.16;5085764;28;19924;-68
2023/04/03 05:05:25;;;;;;;;;;;;;;;1.41;92.10;97145.50;5081556;28;19924;-68
2023/04/03 05:07:50;;;;;;;;;;;;;;;1.41;92.14;97145.50;5085257;28;19920;-66
2023/04/03 05:10:15;;;;;;;;;;;;;;;1.46;93.33;97145.41;5078937;28;19924;-66
2023/04/03 05:12:41;;;;;;;;;;;;;;;1.44;93.79;97144.91;5085531;28;19923;-66
2023/04/03 05:15:08;;;;;;;;;;;;;;;1.43;92.56;97147.91;5045243;28;20212;-68
2023/04/03 05:17:34;;;;;;;;;;;;;;;1.38;94.21;97147.97;5084984;28;19922;-68
2023/04/03 05:19:59;;;;;;;;;;;;;;;1.63;93.09;97146.75;5084943;28;19962;-67
2023/04/03 05:22:24;;;;;;;;;;;;;;;1.48;92.32;97153.22;5080625;28;19912;-68
2023/04/03 05:24:49;;;;;;;;;;;;;;;1.51;93.93;97142.63;5084877;28;19920;-68
2023/04/03 05:27:15;;;;;;;;;;;;;;;1.37;93.12;97160.69;5079440;28;20015;-68
2023/04/03 05:29:43;;;;;;;;;;;;;;;1.41;93.40;97155.50;5085109;28;20496;-68
2023/04/03 05:32:08;;;;;;;;;;;;;;;1.35;93.31;97162.84;5079153;28;19939;-69
2023/04/03 05:34:34;;;;;;;;;;;;;;;1.34;93.09;97161.25;5084548;28;19916;-69
2023/04/03 05:36:59;;;;;;;;;;;;;;;1.39;92.17;97163.06;5083815;28;19969;-69
2023/04/03 05:39:25;;;;;;;;;;;;;;;1.45;93.29;97167.28;5078443;28;19955;-70
2023/04/03 05:41:50;;;;;;;;;;;;;;;1.46;93.49;97166.19;5084684;28;20265;-69
2023/04/03 05:44:15;;;;;;;;;;;;;;;1.56;92.81;97160.63;5077936;28;20373;-69
2023/04/03 05:46:41;;;;;;;;;;;;;;;1.53;93.09;97172.00;5083417;28;19920;-69
2023/04/03 05:49:06;;;;;;;;;;;;;;;1.72;93.21;97167.34;5079393;28;19977;-70
2023/04/03 05:51:33;;;;;;;;;;;;;;;1.74;92.73;97166.25;5075127;28;19920;-69
2023/04/03 05:54:09;;;;;;;;;;;;;;;1.71;92.90;97168.47;5064233;28;19923;-69
2023/04/03 05:56:34;;;;;;;;;;;;;;;1.38;93.19;97162.28;5063180;28;19917;-69
2023/04/03 05:59:00;;;;;;;;;;;;;;;1.52;94.13;97173.91;5064693;28;20371;-69
2023/04/03 06:01:26;;;;;;;;;;;;;;;1.47;93.78;97181.28;5058141;28;19917;-69
2023/04/03 06:03:51;;;;;;;;;;;;;;;1.64;93.59;97172.63;5064420;28;20437;-69
2023/04/03 06:06:16;;;;;;;;;;;;;;;1.44;94.43;97174.59;5070793;28;19924;-69
2023/04/03 06:08:43;;;;;;;;;;;;;;;1.61;94.66;97173.25;5088635;28;19950;-69
2023/04/03 06:11:08;;;;;;;;;;;;;;;1.50;94.31;97180.72;5078248;28;19920;-69
2023/04/03 06:13:34;;;;;;;;;;;;;;;1.55;95.23;97180.63;5089449;28;19985;-68
2023/04/03 06:16:00;;;;;;;;;;;;;;;1.55;95.75;97185.22;5090511;28;19920;-68
2023/04/03 06:18:26;;;;;;;;;;;;;;;1.52;94.17;97181.22;5079922;28;19969;-69
2023/04/03 06:20:51;;;;;;;;;;;;;;;1.65;94.22;97179.63;5084159;28;19924;-68
2023/04/03 06:23:17;;;;;;;;;;;;;;;1.86;94.07;97178.19;5079662;28;19995;-68
2023/04/03 06:25:42;;;;;;;;;;;;;;;1.70;93.19;97176.84;5082735;28;20304;-69
2023/04/03 06:28:09;;;;;;;;;;;;;;;1.63;95.10;97176.44;5077443;28;20045;-68
2023/04/03 06:30:35;;;;;;;;;;;;;;;1.97;93.51;97172.59;5082473;28;19916;-70
2023/04/03 06:33:00;;;;;;;;;;;;;;;1.59;95.47;97168.13;5084033;28;20281;-71
2023/04/03 06:35:27;;;;;;;;;;;;;;;1.56;95.19;97179.50;5078253;28;19955;-67
2023/04/03 06:37:53;;;;;;;;;;;;;;;1.57;96.16;97174.91;5083678;28;19964;-71
2023/04/03 06:40:21;;;;;;;;;;;;;;;1.75;94.53;97179.47;5078810;28;19967;-70
2023/04/03 06:42:46;;;;;;;;;;;;;;;1.78;94.77;97180.75;5083625;28;20354;-70
2023/04/03 06:45:11;;;;;;;;;;;;;;;2.10;94.19;97178.00;5077513;28;19964;-71
2023/04/03 06:47:36;;;;;;;;;;;;;;;1.90;94.67;97184.59;5082939;28;19931;-71
2023/04/03 06:50:02;;;;;;;;;;;;;;;1.89;93.95;97180.28;5080936;28;19959;-67
2023/04/03 06:52:28;;;;;;;;;;;;;;;1.90;93.53;97184.59;5071753;28;19924;-72
2023/04/03 06:54:57;;;;;;;;;;;;;;;1.85;93.87;97181.97;5063058;28;19947;-71
2023/04/03 06:57:22;;;;;;;;;;;;;;;1.90;93.79;97183.78;5057720;28;20854;-71
2023/04/03 06:59:47;;;;;;;;;;;;;;;1.76;95.00;97189.16;5062615;28;19931;-70
2023/04/03 07:02:13;;;;;;;;;;;;;;;2.00;94.33;97183.59;5058671;28;19916;-69
2023/04/03 07:04:38;;;;;;;;;;;;;;;2.07;93.71;97194.00;5064024;28;20258;-72
2023/04/03 07:07:03;;;;;;;;;;;;;;;2.37;92.37;97181.78;5059872;28;20410;-65
2023/04/03 07:09:29;;;;;;;;;;;;;;;2.28;92.43;97189.00;5062842;28;19928;-70
2023/04/03 07:11:54;;;;;;;;;;;;;;;1.94;92.60;97173.19;5081587;28;20190;-70
2023/04/03 07:14:21;;;;;;;;;;;;;;;2.01;94.29;97187.09;5078882;28;19946;-70
2023/04/03 07:16:46;;;;;;;;;;;;;;;2.04;93.93;97184.59;5084441;28;19931;-70
2023/04/03 07:19:12;;;;;;;;;;;;;;;1.84;95.47;97185.00;5090279;28;19920;-67
2023/04/03 07:21:37;;;;;;;;;;;;;;;2.00;96.02;97191.72;5086955;28;19916;-71
2023/04/03 07:24:02;;;;;;;;;;;;;;;2.21;95.67;97196.72;5062976;28;20007;-65
2023/04/03 07:26:28;;;;;;;;;;;;;;;2.17;94.37;97191.13;5061092;28;19916;-69
2023/04/03 07:28:53;;;;;;;;;;;;;;;1.99;95.94;97198.19;5082756;28;19926;-71
2023/04/03 07:31:18;;;;;;;;;;;;;;;2.40;95.12;97191.22;5076870;28;20298;-70
2023/04/03 07:33:45;;;;;;;;;;;;;;;2.63;94.31;97195.59;5070517;28;19916;-69
2023/04/03 07:36:13;;;;;;;;;;;;;;;2.40;94.80;97202.03;5077615;28;19998;-70
2023/04/03 07:38:42;;;;;;;;;;;;;;;2.49;94.41;97197.53;5083375;28;19916;-70
2023/04/03 07:41:10;;;;;;;;;;;;;;;2.40;95.19;97200.13;5079627;28;19924;-69
2023/04/03 07:43:36;;;;;;;;;;;;;;;2.86;92.05;97201.06;5085377;28;20082;-70
2023/04/03 07:46:02;;;;;;;;;;;;;;;2.64;93.90;97199.09;5087583;28;19916;-65
2023/04/03 07:48:27;;;;;;;;;;;;;;;2.68;94.00;97200.09;5064094;28;20110;-70
2023/04/03 07:50:52;;;;;;;;;;;;;;;2.71;94.27;97204.09;5079680;28;19927;-66
2023/04/03 07:53:18;;;;;;;;;;;;;;;2.67;95.24;97204.72;5069865;28;19916;-69
2023/04/03 07:55:45;;;;;;;;;;;;;;;2.47;95.03;97205.94;5048891;28;19922;-67
2023/04/03 07:58:11;;;;;;;;;;;;;;;2.43;96.29;97214.94;5077685;28;20552;-71
2023/04/03 08:00:37;;;;;;;;;;;;;;;2.44;97.47;97203.81;5082071;28;19977;-71
2023/04/03 08:03:03;;;;;;;;;;;;;;;2.65;96.66;97206.91;5079864;28;19916;-67
2023/04/03 08:05:28;;;;;;;;;;;;;;;2.57;96.17;97204.13;5061954;28;19950;-70
2023/04/03 08:07:53;;;;;;;;;;;;;;;2.38;96.75;97205.03;5080559;28;20230;-70
2023/04/03 08:10:19;;;;;;;;;;;;;;;2.56;96.04;97208.72;5055458;28;19924;-70
2023/04/03 08:12:46;;;;;;;;;;;;;;;2.81;96.52;97206.56;5076970;28;20372;-70
2023/04/03 08:15:11;;;;;;;;;;;;;;;2.76;94.68;97204.00;5076211;28;20335;-71
2023/04/03 08:17:36;;;;;;;;;;;;;;;3.15;93.91;97199.88;5082725;28;19920;-71
2023/04/03 08:20:03;;;;;;;;;;;;;;;2.71;95.31;97210.31;5080696;28;19916;-66
2023/04/03 08:22:29;;;;;;;;;;;;;;;2.70;96.26;97210.63;5081361;28;19948;-71
2023/04/03 08:24:54;;;;;;;;;;;;;;;2.81;98.04;97210.09;5080350;28;19977;-71
2023/04/03 08:27:20;;;;;;;;;;;;;;;2.67;96.94;97215.53;5076519;28;20382;-68
2023/04/03 08:29:45;;;;;;;;;;;;;;;2.72;98.45;97214.63;5081946;28;20399;-72
2023/04/03 08:32:10;;;;;;;;;;;;;;;2.87;96.22;97211.59;5076269;28;19927;-72
2023/04/03 08:34:36;;;;;;;;;;;;;;;2.90;95.37;97207.50;5081057;28;19941;-71
2023/04/03 08:37:05;;;;;;;;;;;;;;;2.86;96.85;97210.00;5062276;28;19920;-65
2023/04/03 08:39:31;;;;;;;;;;;;;;;2.78;97.31;97215.31;5081002;28;20273;-71
2023/04/03 08:41:58;;;;;;;;;;;;;;;3.00;95.24;97201.81;5081839;28;19920;-70
2023/04/03 08:44:24;;;;;;;;;;;;;;;3.12;95.24;97212.13;5047758;28;19916;-71
2023/04/03 08:46:56;;;;;;;;;;;;;;;3.17;95.07;97209.31;5056419;28;19931;-70
2023/04/03 08:49:47;;;;;;;;;;;;;;;3.22;93.47;97208.38;5055031;28;20226;-71
2023/04/03 08:52:15;;;;;;;;;;;;;;;3.14;94.47;97211.84;5061471;28;19921;-71
2023/04/03 08:54:52;;;;;;;;;;;;;;;3.27;94.40;97210.19;5072734;28;19920;-70
2023/04/03 08:57:25;;;;;;;;;;;;;;;3.99;91.26;97220.06;5076063;28;20007;-70
2023/04/03 08:59:50;;;;;;;;;;;;;;;3.71;90.12;97222.94;5080660;28;19916;-71
2023/04/03 09:02:23;;;;;;;;;;;;;;;3.77;91.25;97226.31;5076054;28;20381;-70
2023/04/03 09:04:48;;;;;;;;;;;;;;;3.85;90.72;97230.19;5063935;28;20269;-70
2023/04/03 09:07:20;;;;;;;;;;;;;;;4.15;88.43;97223.97;5077712;28;19942;-70
2023/04/03 09:09:49;;;;;;;;;;;;;;;4.27;86.48;97222.56;5081094;28;19955;-69
2023/04/03 09:12:25;;;;;;;;;;;;;;;4.56;86.89;97227.50;5050986;28;19916;-69
2023/04/03 09:15:06;;;;;;;;;;;;;;;4.34;86.53;97223.75;5094526;28;20010;-71
2023/04/03 09:17:43;;;;;;;;;;;;;;;4.19;89.83;97211.38;5085580;22;19965;-70
2023/04/03 09:20:11;;;;;;;;;;;;;;;3.96;87.15;97218.78;5024974;28;19925;-72
2023/04/03 09:22:41;;;;;;;;;;;;;;;4.07;86.09;97213.06;5028930;28;19917;-73
2023/04/03 09:25:21;;;;;;;;;;;;;;;3.89;89.37;97220.31;5021132;28;19996;-73
2023/04/03 09:27:47;;;;;;;;;;;;;;;4.36;86.05;97228.84;5022679;28;20561;-72
2023/04/03 09:30:17;;;;;;;;;;;;;;;4.11;88.69;97223.00;5017657;28;19932;-74
2023/04/03 09:32:45;;;;;;;;;;;;;;;3.82;90.50;97224.28;5022716;28;19941;-71
2023/04/03 09:35:13;;;;;;;;;;;;;;;3.59;88.66;97214.56;5008411;28;19932;-70
2023/04/03 09:37:43;;;;;;;;;;;;;;;3.73;88.64;97200.97;5006713;28;19925;-72
2023/04/03 09:40:26;;;;;;;;;;;;;;;3.91;91.13;97218.13;5002727;28;19969;-70
2023/04/03 09:43:12;;;;;;;;;;;;;;;4.04;90.43;97216.44;5006253;28;19921;-70
2023/04/03 09:45:37;;;;;;;;;;;;;;;4.16;89.67;97222.03;4998127;28;20020;-70
2023/04/03 09:48:15;;;;;;;;;;;;;;;4.68;87.46;97222.25;5004241;28;20020;-72
2023/04/03 09:50:50;;;;;;;;;;;;;;;4.95;81.79;97214.94;5007526;28;19917;-71
2023/04/03 09:53:36;;;;;;;;;;;;;;;4.64;84.38;97223.19;5013082;28;19960;-70
2023/04/03 09:56:03;;;;;;;;;;;;;;;4.93;83.07;97211.75;5002101;28;19956;-72
2023/04/03 09:58:33;;;;;;;;;;;;;;;4.96;83.32;97230.94;5005533;28;19922;-70
2023/04/03 10:00:59;;;;;;;;;;;;;;;4.45;85.85;97216.13;5006470;28;19917;-70
2023/04/03 10:03:29;;;;;;;;;;;;;;;4.49;86.86;97219.81;4997910;28;19921;-71
2023/04/03 10:05:55;;;;;;;;;;;;;;;4.49;85.76;97214.38;4988276;28;19975;-71
2023/04/03 10:08:23;;;;;;;;;;;;;;;5.22;83.59;97205.75;5000856;28;20347;-72
2023/04/03 10:11:05;;;;;;;;;;;;;;;4.93;82.76;97215.28;5005595;28;19918;-72
2023/04/03 10:13:32;;;;;;;;;;;;;;;4.86;84.74;97206.00;5017823;28;19928;-71
2023/04/03 10:16:02;;;;;;;;;;;;;;;4.69;85.69;97212.19;5026090;28;20294;-72
2023/04/03 10:18:44;;;;;;;;;;;;;;;4.35;83.47;97209.06;5022110;28;19928;-70
2023/04/03 10:21:35;;;;;;;;;;;;;;;4.28;84.01;97213.34;5002813;28;20344;-71
2023/04/03 10:24:05;;;;;;;;;;;;;;;4.54;82.15;97208.03;5001555;28;19928;-71
2023/04/03 10:26:41;;;;;;;;;;;;;;;4.31;81.62;97202.66;5023374;28;19975;-71
2023/04/03 10:29:31;;;;;;;;;;;;;;;4.40;85.52;97219.75;5017816;28;19921;-70
2023/04/03 10:32:08;;;;;;;;;;;;;;;4.77;83.02;97212.22;5029814;28;19940;-71
2023/04/03 10:34:40;;;;;;;;;;;;;;;4.20;84.90;97209.47;5031137;28;19921;-71
2023/04/03 10:37:36;;;;;;;;;;;;;;;4.20;87.34;97213.00;5019678;28;20608;-70
2023/04/03 10:40:05;;;;;;;;;;;;;;;4.53;85.20;97204.47;5012178;28;19928;-70
2023/04/03 10:42:39;;;;;;;;;;;;;;;4.28;84.83;97203.28;5024019;28;20380;-71
2023/04/03 10:45:18;;;;;;;;;;;;;;;4.27;83.04;97206.31;5028064;28;19918;-72
2023/04/03 10:47:44;;;;;;;;;;;;;;;4.43;83.27;97193.94;5003802;28;19929;-70
2023/04/03 10:50:09;;;;;;;;;;;;;;;4.58;82.48;97200.84;4998114;28;19922;-71
2023/04/03 10:52:51;;;;;;;;;;;;;;;4.50;82.14;97191.56;5024647;28;19917;-70
2023/04/03 10:55:24;;;;;;;;;;;;;;;4.73;81.14;97178.69;5003224;28;20375;-70
2023/04/03 10:57:50;;;;;;;;;;;;;;;4.69;80.54;97188.56;5024276;28;20009;-71
2023/04/03 11:00:21;;;;;;;;;;;;;;;4.94;78.98;97188.94;5019293;28;20349;-70
2023/04/03 11:02:52;;;;;;;;;;;;;;;4.83;77.16;97183.00;5023901;28;19920;-71
2023/04/03 11:05:36;;;;;;;;;;;;;;;4.52;77.44;97181.19;5019886;28;19971;-70
2023/04/03 11:08:10;;;;;;;;;;;;;;;4.78;76.45;97177.75;5021067;28;19921;-72
2023/04/03 11:10:41;;;;;;;;;;;;;;;5.05;79.38;97179.34;5024674;28;19917;-71
2023/04/03 11:13:10;;;;;;;;;;;;;;;5.19;77.55;97179.22;5014122;28;20054;-70
2023/04/03 11:15:36;;;;;;;;;;;;;;;5.73;74.32;97174.19;5006157;28;19947;-71
2023/04/03 11:18:03;;;;;;;;;;;;;;;5.09;75.37;97171.38;5021901;28;19925;-71
2023/04/03 11:20:32;;;;;;;;;;;;;;;5.28;74.10;97171.06;5025768;28;19925;-71
2023/04/03 11:23:03;;;;;;;;;;;;;;;5.81;71.70;97164.41;5025821;28;19921;-71
2023/04/03 11:25:30;;;;;;;;;;;;;;;5.22;70.43;97166.91;5023028;28;19921;-72
2023/04/03 11:27:56;;;;;;;;;;;;;;;5.52;70.31;97167.84;5024164;28;19921;-70
2023/04/03 11:30:21;;;;;;;;;;;;;;;5.92;69.53;97162.97;5019291;28;19917;-71
2023/04/03 11:32:46;;;;;;;;;;;;;;;5.85;71.28;97164.56;5024091;28;19967;-69
2023/04/03 11:35:11;;;;;;;;;;;;;;;6.24;68.47;97162.72;5019468;28;20377;-71
2023/04/03 11:37:48;;;;;;;;;;;;;;;5.74;70.96;97153.25;5023396;28;20289;-71
2023/04/03 11:40:17;;;;;;;;;;;;;;;5.93;70.22;97163.75;5001662;28;19917;-70
2023/04/03 11:42:46;;;;;;;;;;;;;;;6.02;67.63;97161.03;5023463;28;20254;-71
2023/04/03 11:45:24;;;;;;;;;;;;;;;5.71;69.85;97162.06;5018412;28;20039;-72
2023/04/03 11:47:58;;;;;;;;;;;;;;;5.42;71.58;97162.72;5024146;28;19929;-72
2023/04/03 11:50:41;;;;;;;;;;;;;;;5.85;68.11;97164.56;5022406;28;20468;-73
2023/04/03 11:53:07;;;;;;;;;;;;;;;6.41;66.42;97146.31;5006990;28;19918;-72
2023/04/03 11:55:32;;;;;;;;;;;;;;;5.78;67.33;97146.06;5012162;28;19922;-71
2023/04/03 11:57:57;;;;;;;;;;;;;;;5.77;66.84;97149.09;5003426;28;19917;-71
2023/04/03 12:00:41;;;;;;;;;;;;;;;6.35;67.07;97144.09;4999408;28;20319;-72
2023/04/03 12:03:28;;;;;;;;;;;;;;;5.72;66.21;97136.47;4981893;28;19963;-71
2023/04/03 12:05:57;;;;;;;;;;;;;;;5.77;67.66;97139.00;5003034;28;19971;-72
2023/04/03 12:08:26;;;;;;;;;;;;;;;6.21;66.06;97149.75;5016623;28;20317;-71
2023/04/03 12:11:10;;;;;;;;;;;;;;;5.80;66.01;97141.09;5008057;28;19917;-72
2023/04/03 12:13:57;;;;;;;;;;;;;;;5.76;65.87;97134.69;5014893;28;19988;-72
2023/04/03 12:16:24;;;;;;;;;;;;;;;5.65;64.90;97136.94;5033767;28;20230;-70
2023/04/03 12:18:53;;;;;;;;;;;;;;;5.48;66.18;97148.66;5021920;28;19925;-69
2023/04/03 12:21:38;;;;;;;;;;;;;;;5.68;66.64;97139.03;5018313;28;19951;-71
2023/04/03 12:24:03;;;;;;;;;;;;;;;5.82;66.95;97135.34;5002927;28;19921;-73
2023/04/03 12:26:36;;;;;;;;;;;;;;;5.33;67.46;97135.56;5023432;28;19972;-70
2023/04/03 12:29:30;;;;;;;;;;;;;;;5.41;66.99;97140.22;5023025;28;19956;-72
2023/04/03 12:32:10;;;;;;;;;;;;;;;5.05;66.75;97135.13;4969414;28;19925;-71
2023/04/03 12:34:54;;;;;;;;;;;;;;;5.25;65.13;97130.97;5028161;28;20316;-72
2023/04/03 12:37:38;;;;;;;;;;;;;;;5.39;67.33;97142.44;5025647;28;19963;-70
2023/04/03 12:40:10;;;;;;;;;;;;;;;5.63;66.94;97135.69;5025148;28;20374;-72
2023/04/03 12:42:41;;;;;;;;;;;;;;;5.48;67.83;97140.50;5023408;28;19972;-71
2023/04/03 12:45:06;;;;;;;;;;;;;;;5.14;65.46;97123.13;5003388;28;19924;-70
2023/04/03 12:47:35;;;;;;;;;;;;;;;5.51;65.98;97134.44;5021459;28;20007;-72
2023/04/03 12:50:02;;;;;;;;;;;;;;;5.93;63.85;97133.84;5024076;28;19917;-71
2023/04/03 12:52:31;;;;;;;;;;;;;;;5.39;64.74;97137.00;5021868;28;19917;-72
2023/04/03 12:54:58;;;;;;;;;;;;;;;5.52;63.82;97132.50;5012613;28;20016;-71
2023/04/03 12:57:24;;;;;;;;;;;;;;;5.89;63.08;97139.13;4999854;28;19918;-71
2023/04/03 12:59:50;;;;;;;;;;;;;;;5.58;61.02;97141.28;5008197;28;19967;-71